createdAt,value
2023-04-15T00:00:32.929Z,10.90
2023-04-15T00:02:59.732Z,10.90
2023-04-15T00:05:26.457Z,10.80
2023-04-15T00:07:53.078Z,10.80
2023-04-15T00:10:19.814Z,10.80
2023-04-15T00:12:46.470Z,10.80
2023-04-15T00:15:13.068Z,10.80
2023-04-15T00:17:39.761Z,10.80
2023-04-15T00:20:06.886Z,10.70
2023-04-15T00:22:33.475Z,10.70
2023-04-15T00:25:00.060Z,10.70
2023-04-15T00:27:26.654Z,10.60
2023-04-15T00:29:53.292Z,10.60
2023-04-15T00:32:19.888Z,10.60
2023-04-15T00:34:46.478Z,10.60
2023-04-15T00:37:13.107Z,10.50
2023-04-15T00:39:39.798Z,10.50
2023-04-15T00:42:06.469Z,10.60
2023-04-15T00:44:33.526Z,10.50
2023-04-15T00:47:00.782Z,10.50
2023-04-15T00:49:27.336Z,10.50
2023-04-15T00:51:53.964Z,10.50
2023-04-15T00:54:20.578Z,10.40
2023-04-15T00:56:47.265Z,10.40
2023-04-15T00:59:14.546Z,10.40
2023-04-15T01:01:41.204Z,10.40
2023-04-15T01:04:07.922Z,10.40
2023-04-15T01:06:34.571Z,10.40
2023-04-15T01:09:01.368Z,10.30
2023-04-15T01:11:28.153Z,10.30
2023-04-15T01:13:55.536Z,10.30
2023-04-15T01:16:22.198Z,10.30
2023-04-15T01:18:49.003Z,10.30
2023-04-15T01:21:15.582Z,10.30
2023-04-15T01:23:42.203Z,10.20
2023-04-15T01:26:08.838Z,10.20
2023-04-15T01:28:36.171Z,10.20
2023-04-15T01:31:09.547Z,10.20
2023-04-15T01:33:36.269Z,10.20
2023-04-15T01:36:03.045Z,10.20
2023-04-15T01:38:29.679Z,10.20
2023-04-15T01:40:56.449Z,10.20
2023-04-15T01:43:23.077Z,10.20
2023-04-15T01:45:49.715Z,10.20
2023-04-15T01:48:16.374Z,10.30
2023-04-15T01:50:43.373Z,10.20
2023-04-15T01:53:10.011Z,10.30
2023-04-15T01:55:36.850Z,10.30
2023-04-15T01:58:03.713Z,10.30
2023-04-15T02:00:30.304Z,10.20
2023-04-15T02:03:00.111Z,10.20
2023-04-15T02:05:26.778Z,10.20
2023-04-15T02:07:53.497Z,10.20
2023-04-15T02:10:20.100Z,10.20
2023-04-15T02:12:46.710Z,10.20
2023-04-15T02:15:13.350Z,10.20
2023-04-15T02:17:39.980Z,10.20
2023-04-15T02:20:07.298Z,10.20
2023-04-15T02:22:34.030Z,10.10
2023-04-15T02:25:00.679Z,10.10
2023-04-15T02:27:27.254Z,10.10
2023-04-15T02:29:53.860Z,10.10
2023-04-15T02:32:20.610Z,10.10
2023-04-15T02:34:47.206Z,10.10
2023-04-15T02:37:14.807Z,10.10
2023-04-15T02:39:41.446Z,10.10
2023-04-15T02:42:08.014Z,10.10
2023-04-15T02:44:34.650Z,10.10
2023-04-15T02:47:01.279Z,10.10
2023-04-15T02:49:27.885Z,10.10
2023-04-15T02:51:54.522Z,10.20
2023-04-15T02:54:21.662Z,10.20
2023-04-15T02:56:48.457Z,10.20
2023-04-15T02:59:15.294Z,10.10
2023-04-15T03:01:42.084Z,10.10
2023-04-15T03:04:11.074Z,10.00
2023-04-15T03:06:37.843Z,9.90
2023-04-15T03:09:04.418Z,9.90
2023-04-15T03:11:31.082Z,9.80
2023-04-15T03:13:57.845Z,9.80
2023-04-15T03:16:25.019Z,9.80
2023-04-15T03:18:51.694Z,9.80
2023-04-15T03:21:18.334Z,9.80
2023-04-15T03:23:45.050Z,9.80
2023-04-15T03:26:14.472Z,9.80
2023-04-15T03:28:41.132Z,9.80
2023-04-15T03:31:07.773Z,9.80
2023-04-15T03:33:34.435Z,9.80
2023-04-15T03:36:01.044Z,9.80
2023-04-15T03:38:27.617Z,9.80
2023-04-15T03:40:54.199Z,9.70
2023-04-15T03:43:20.834Z,9.70
2023-04-15T03:45:47.437Z,9.70
2023-04-15T03:48:17.740Z,9.70
2023-04-15T03:50:45.277Z,9.70
2023-04-15T03:53:11.986Z,9.80
2023-04-15T03:55:38.636Z,9.80
2023-04-15T03:58:05.222Z,9.70
2023-04-15T04:00:31.853Z,9.70
2023-04-15T04:02:58.784Z,9.80
2023-04-15T04:05:25.540Z,9.80
2023-04-15T04:07:52.183Z,9.80
2023-04-15T04:10:18.916Z,9.80
2023-04-15T04:12:45.564Z,9.70
2023-04-15T04:15:12.246Z,9.70
2023-04-15T04:17:38.987Z,9.70
2023-04-15T04:20:06.307Z,9.70
2023-04-15T04:22:38.086Z,9.60
2023-04-15T04:25:04.949Z,9.60
2023-04-15T04:27:31.554Z,9.60
2023-04-15T04:29:58.158Z,9.60
2023-04-15T04:32:24.855Z,9.50
2023-04-15T04:34:51.576Z,9.50
2023-04-15T04:37:18.271Z,9.50
2023-04-15T04:39:44.838Z,9.40
2023-04-15T04:42:11.428Z,9.40
2023-04-15T04:44:37.989Z,9.40
2023-04-15T04:47:04.613Z,9.40
2023-04-15T04:49:31.268Z,9.40
2023-04-15T04:51:57.890Z,9.40
2023-04-15T04:54:24.470Z,9.40
2023-04-15T04:56:51.185Z,9.40
2023-04-15T04:59:19.407Z,9.40
2023-04-15T05:01:46.158Z,9.40
2023-04-15T05:04:12.855Z,9.40
2023-04-15T05:06:39.552Z,9.30
2023-04-15T05:09:06.160Z,9.30
2023-04-15T05:11:33.074Z,9.30
2023-04-15T05:13:59.831Z,9.30
2023-04-15T05:16:26.530Z,9.30
2023-04-15T05:18:53.254Z,9.30
2023-04-15T05:21:20.201Z,9.20
2023-04-15T05:23:46.962Z,9.20
2023-04-15T05:26:13.577Z,9.20
2023-04-15T05:28:40.209Z,9.30
2023-04-15T05:31:06.784Z,9.20
2023-04-15T05:33:33.444Z,9.20
2023-04-15T05:36:00.042Z,9.20
2023-04-15T05:38:26.636Z,9.20
2023-04-15T05:40:53.256Z,9.20
2023-04-15T05:43:19.856Z,9.20
2023-04-15T05:45:46.563Z,9.30
2023-04-15T05:48:13.256Z,9.30
2023-04-15T05:50:44.730Z,9.30
2023-04-15T05:53:11.500Z,9.40
2023-04-15T05:55:39.496Z,9.40
2023-04-15T05:58:06.117Z,9.40
2023-04-15T06:00:32.741Z,9.40
2023-04-15T06:02:59.399Z,9.40
2023-04-15T06:05:26.213Z,9.40
2023-04-15T06:07:52.867Z,9.50
2023-04-15T06:10:19.498Z,9.50
2023-04-15T06:12:46.124Z,9.60
2023-04-15T06:15:14.053Z,9.60
2023-04-15T06:17:40.700Z,9.60
2023-04-15T06:20:07.956Z,9.70
2023-04-15T06:22:34.630Z,9.70
2023-04-15T06:25:01.285Z,9.80
2023-04-15T06:27:27.995Z,9.80
2023-04-15T06:29:54.718Z,9.80
2023-04-15T06:32:21.413Z,9.90
2023-04-15T06:34:48.162Z,10.00
2023-04-15T06:37:14.870Z,10.10
2023-04-15T06:39:41.921Z,10.20
2023-04-15T06:42:08.922Z,10.20
2023-04-15T06:44:35.620Z,10.40
2023-04-15T06:47:02.409Z,10.40
2023-04-15T06:49:29.196Z,10.50
2023-04-15T06:51:55.829Z,10.50
2023-04-15T06:54:22.895Z,10.50
2023-04-15T06:56:49.511Z,10.50
2023-04-15T06:59:17.079Z,10.50
2023-04-15T07:01:43.800Z,10.50
2023-04-15T07:04:10.615Z,10.50
2023-04-15T07:06:37.274Z,10.50
2023-04-15T07:09:04.215Z,10.60
2023-04-15T07:11:31.169Z,10.60
2023-04-15T07:14:00.868Z,10.60
2023-04-15T07:16:29.786Z,10.70
2023-04-15T07:18:56.576Z,10.70
2023-04-15T07:21:23.915Z,10.70
2023-04-15T07:23:50.553Z,10.70
2023-04-15T07:26:17.153Z,10.70
2023-04-15T07:28:43.712Z,10.80
2023-04-15T07:31:10.408Z,10.80
2023-04-15T07:33:37.106Z,10.80
2023-04-15T07:36:03.831Z,10.80
2023-04-15T07:38:30.559Z,10.90
2023-04-15T07:40:57.203Z,10.90
2023-04-15T07:43:24.009Z,10.90
2023-04-15T07:45:50.824Z,10.90
2023-04-15T07:48:17.478Z,10.90
2023-04-15T07:50:44.108Z,10.90
2023-04-15T07:53:10.839Z,11.00
2023-04-15T07:55:37.484Z,11.00
2023-04-15T07:58:04.098Z,11.10
2023-04-15T08:00:33.733Z,11.20
2023-04-15T08:03:00.460Z,11.60
2023-04-15T08:05:27.349Z,12.10
2023-04-15T08:07:53.978Z,12.70
2023-04-15T08:10:20.962Z,13.20
2023-04-15T08:12:48.051Z,13.70
2023-04-15T08:15:14.948Z,14.20
2023-04-15T08:17:41.668Z,14.60
2023-04-15T08:20:08.496Z,15.00
2023-04-15T08:22:35.467Z,15.40
2023-04-15T08:25:02.190Z,15.80
2023-04-15T08:27:28.952Z,16.10
2023-04-15T08:29:55.636Z,16.30
2023-04-15T08:32:22.559Z,16.60
2023-04-15T08:34:49.618Z,16.80
2023-04-15T08:37:16.197Z,17.10
2023-04-15T08:39:42.879Z,17.30
2023-04-15T08:42:12.310Z,17.50
2023-04-15T08:44:39.106Z,17.70
2023-04-15T08:47:08.491Z,17.90
2023-04-15T08:49:39.099Z,18.10
2023-04-15T08:52:05.972Z,18.20
2023-04-15T08:54:32.579Z,18.40
2023-04-15T08:56:59.137Z,18.60
2023-04-15T08:59:27.915Z,18.80
2023-04-15T09:01:54.544Z,19.00
2023-04-15T09:04:21.434Z,19.20
2023-04-15T09:06:48.044Z,19.30
2023-04-15T09:09:14.843Z,19.30
2023-04-15T09:11:41.905Z,19.50
2023-04-15T09:14:08.742Z,19.80
2023-04-15T09:17:01.511Z,19.80
2023-04-15T09:19:28.434Z,20.10
2023-04-15T09:21:58.437Z,20.20
2023-04-15T09:24:25.832Z,20.30
2023-04-15T09:26:53.242Z,20.50
2023-04-15T09:29:19.909Z,20.60
2023-04-15T09:31:46.622Z,20.70
2023-04-15T09:34:14.146Z,21.00
2023-04-15T09:37:00.039Z,21.10
2023-04-15T09:39:26.846Z,21.20
2023-04-15T09:42:06.897Z,21.30
2023-04-15T09:44:33.863Z,21.30
2023-04-15T09:47:00.962Z,21.20
2023-04-15T09:49:27.587Z,21.30
2023-04-15T09:52:05.045Z,21.40
2023-04-15T09:54:37.793Z,21.50
2023-04-15T09:57:10.573Z,21.60
2023-04-15T09:59:37.250Z,21.70
2023-04-15T10:02:06.841Z,21.80
2023-04-15T10:04:35.734Z,22.00
2023-04-15T10:07:03.979Z,22.10
2023-04-15T10:09:30.857Z,22.20
2023-04-15T10:12:04.137Z,22.40
2023-04-15T10:14:41.556Z,22.60
2023-04-15T10:17:08.464Z,23.00
2023-04-15T10:19:37.307Z,23.30
2023-04-15T10:22:04.114Z,23.70
2023-04-15T10:24:34.330Z,23.80
2023-04-15T10:27:00.987Z,23.80
2023-04-15T10:29:27.648Z,23.60
2023-04-15T10:31:57.304Z,23.50
2023-04-15T10:34:24.216Z,23.30
2023-04-15T10:36:50.958Z,23.40
2023-04-15T10:39:36.394Z,23.60
2023-04-15T10:42:18.536Z,23.90
2023-04-15T10:44:49.866Z,24.10
2023-04-15T10:47:18.349Z,24.30
2023-04-15T10:49:51.437Z,24.50
2023-04-15T10:52:22.222Z,24.60
2023-04-15T10:54:48.839Z,24.70
2023-04-15T10:57:27.521Z,24.50
2023-04-15T11:00:09.567Z,24.60
2023-04-15T11:02:42.283Z,24.80
2023-04-15T11:05:10.119Z,24.90
2023-04-15T11:07:50.959Z,24.90
2023-04-15T11:10:17.555Z,24.90
2023-04-15T11:12:45.079Z,25.10
2023-04-15T11:15:31.614Z,25.20
2023-04-15T11:17:58.895Z,25.30
2023-04-15T11:20:26.487Z,25.20
2023-04-15T11:23:13.900Z,25.20
2023-04-15T11:25:40.780Z,25.30
2023-04-15T11:28:07.894Z,25.40
2023-04-15T11:30:36.544Z,25.50
2023-04-15T11:33:04.632Z,25.50
2023-04-15T11:35:31.752Z,25.60
2023-04-15T11:37:58.360Z,25.30
2023-04-15T11:40:29.742Z,25.20
2023-04-15T11:43:15.355Z,25.30
2023-04-15T11:45:52.477Z,25.30
2023-04-15T11:48:19.339Z,25.30
2023-04-15T11:50:46.117Z,25.10
2023-04-15T11:53:13.596Z,25.20
2023-04-15T11:55:47.119Z,25.20
2023-04-15T11:58:16.327Z,25.30
2023-04-15T12:00:53.967Z,25.40
2023-04-15T12:03:28.327Z,25.60
2023-04-15T12:06:14.309Z,25.60
2023-04-15T12:08:52.903Z,25.70
2023-04-15T12:11:36.014Z,25.50
2023-04-15T12:14:22.018Z,25.30
2023-04-15T12:16:51.855Z,25.30
2023-04-15T12:19:29.409Z,25.40
2023-04-15T12:22:01.046Z,25.50
2023-04-15T12:24:27.876Z,25.20
2023-04-15T12:26:55.833Z,25.30
2023-04-15T12:29:26.319Z,25.60
2023-04-15T12:32:05.890Z,25.80
2023-04-15T12:34:36.926Z,25.80
2023-04-15T12:37:05.150Z,25.80
2023-04-15T12:39:34.577Z,25.90
2023-04-15T12:42:01.274Z,25.90
2023-04-15T12:44:28.054Z,26.00
2023-04-15T12:46:55.017Z,26.30
2023-04-15T12:49:22.490Z,26.50
2023-04-15T12:51:49.715Z,26.60
2023-04-15T12:54:17.268Z,26.70
2023-04-15T12:56:44.997Z,26.80
2023-04-15T12:59:11.766Z,26.80
2023-04-15T13:01:38.668Z,27.20
2023-04-15T13:04:06.004Z,27.20
2023-04-15T13:06:32.886Z,26.90
2023-04-15T13:09:00.272Z,26.50
2023-04-15T13:11:27.297Z,25.90
2023-04-15T13:13:53.887Z,25.60
2023-04-15T13:16:20.503Z,25.80
2023-04-15T13:18:48.040Z,26.00
2023-04-15T13:21:14.750Z,26.00
2023-04-15T13:23:42.156Z,26.00
2023-04-15T13:26:08.797Z,25.90
2023-04-15T13:28:35.448Z,26.00
2023-04-15T13:31:02.094Z,26.20
2023-04-15T13:33:28.760Z,26.50
2023-04-15T13:35:55.364Z,26.50
2023-04-15T13:38:22.003Z,26.40
2023-04-15T13:40:48.594Z,26.20
2023-04-15T13:43:15.359Z,26.10
2023-04-15T13:45:42.068Z,25.70
2023-04-15T13:48:08.741Z,25.30
2023-04-15T13:50:35.421Z,25.10
2023-04-15T13:53:02.180Z,25.00
2023-04-15T13:55:28.890Z,24.70
2023-04-15T13:57:56.321Z,24.60
2023-04-15T14:00:22.922Z,24.50
2023-04-15T14:02:49.636Z,24.50
2023-04-15T14:05:16.461Z,24.30
2023-04-15T14:07:43.114Z,24.00
2023-04-15T14:10:09.783Z,23.90
2023-04-15T14:12:36.451Z,24.10
2023-04-15T14:15:03.288Z,24.20
2023-04-15T14:17:29.939Z,24.10
2023-04-15T14:19:56.670Z,23.60
2023-04-15T14:22:23.329Z,23.40
2023-04-15T14:24:49.921Z,23.10
2023-04-15T14:27:16.532Z,23.10
2023-04-15T14:29:43.097Z,22.70
2023-04-15T14:32:11.910Z,22.20
2023-04-15T14:34:39.597Z,22.00
2023-04-15T14:37:06.261Z,22.00
2023-04-15T14:39:32.819Z,22.10
2023-04-15T14:41:59.481Z,21.90
2023-04-15T14:44:26.272Z,21.60
2023-04-15T14:46:52.858Z,21.60
2023-04-15T14:49:19.560Z,21.40
2023-04-15T14:51:46.238Z,21.00
2023-04-15T14:54:12.942Z,20.70
2023-04-15T14:56:39.515Z,20.50
2023-04-15T14:59:06.255Z,20.70
2023-04-15T15:01:33.831Z,21.00
2023-04-15T15:04:00.593Z,21.10
2023-04-15T15:06:27.334Z,20.90
2023-04-15T15:08:53.957Z,20.70
2023-04-15T15:11:20.639Z,20.40
2023-04-15T15:13:47.273Z,20.00
2023-04-15T15:16:14.630Z,19.80
2023-04-15T15:18:41.445Z,19.60
2023-04-15T15:21:08.104Z,19.40
2023-04-15T15:23:34.852Z,19.20
2023-04-15T15:26:01.471Z,19.00
2023-04-15T15:28:28.206Z,18.80
2023-04-15T15:30:55.125Z,18.60
2023-04-15T15:33:21.877Z,18.40
2023-04-15T15:35:48.888Z,18.20
2023-04-15T15:38:15.527Z,18.10
2023-04-15T15:40:42.330Z,17.90
2023-04-15T15:43:09.061Z,17.80
2023-04-15T15:45:35.837Z,17.90
2023-04-15T15:48:02.665Z,18.10
2023-04-15T15:50:29.480Z,18.20
2023-04-15T15:52:56.321Z,18.30
2023-04-15T15:55:22.955Z,18.30
2023-04-15T15:57:50.871Z,18.30
2023-04-15T16:00:17.779Z,18.20
2023-04-15T16:05:14.187Z,17.70
2023-04-15T16:07:40.889Z,17.60
2023-04-15T16:10:08.251Z,17.50
2023-04-15T16:12:35.101Z,17.40
2023-04-15T16:15:01.803Z,17.30
2023-04-15T16:17:28.749Z,17.20
2023-04-15T16:20:00.694Z,17.00
2023-04-15T16:22:27.818Z,16.90
2023-04-15T16:24:54.554Z,16.70
2023-04-15T16:27:21.195Z,16.60
2023-04-15T16:29:47.800Z,16.60
2023-04-15T16:32:14.505Z,16.50
2023-04-15T16:34:41.341Z,16.30
2023-04-15T16:37:08.073Z,16.20
2023-04-15T16:39:34.786Z,16.10
2023-04-15T16:42:02.300Z,16.00
2023-04-15T16:44:28.976Z,15.80
2023-04-15T16:46:55.721Z,15.70
2023-04-15T16:49:22.402Z,15.60
2023-04-15T16:51:49.108Z,15.60
2023-04-15T16:54:15.822Z,15.60
2023-04-15T16:56:42.524Z,15.60
2023-04-15T16:59:09.222Z,15.50
2023-04-15T17:01:36.292Z,15.50
2023-04-15T17:04:03.306Z,15.40
2023-04-15T17:06:30.504Z,15.30
2023-04-15T17:08:57.341Z,15.20
2023-04-15T17:11:24.051Z,15.10
2023-04-15T17:13:51.062Z,15.00
2023-04-15T17:16:17.808Z,14.80
2023-04-15T17:18:44.495Z,14.70
2023-04-15T17:21:11.102Z,14.60
2023-04-15T17:23:37.702Z,14.60
2023-04-15T17:26:04.340Z,14.60
2023-04-15T17:28:31.454Z,14.40
2023-04-15T17:30:59.948Z,14.30
2023-04-15T17:34:02.198Z,14.20
2023-04-15T17:36:13.651Z,14.20
2023-04-15T17:38:41.402Z,14.10
2023-04-15T17:41:08.045Z,14.00
2023-04-15T17:43:34.737Z,13.90
2023-04-15T17:46:01.496Z,13.80
2023-04-15T17:48:28.197Z,13.70
2023-04-15T17:50:54.930Z,13.50
2023-04-15T17:53:21.558Z,13.40
2023-04-15T17:55:48.354Z,13.40
2023-04-15T17:58:15.132Z,13.20
2023-04-15T18:00:41.777Z,13.10
2023-04-15T18:03:08.760Z,13.00
2023-04-15T18:05:35.580Z,12.90
2023-04-15T18:08:03.776Z,12.80
2023-04-15T18:10:30.603Z,12.70
2023-04-15T18:12:57.340Z,12.70
2023-04-15T18:15:24.183Z,12.60
2023-04-15T18:17:51.071Z,12.50
2023-04-15T18:20:17.911Z,12.40
2023-04-15T18:22:44.623Z,12.20
2023-04-15T18:25:11.364Z,12.10
2023-04-15T18:27:37.998Z,12.10
2023-04-15T18:30:07.802Z,12.00
2023-04-15T18:32:34.480Z,12.00
2023-04-15T18:35:01.184Z,11.80
2023-04-15T18:37:27.876Z,11.80
2023-04-15T18:39:54.695Z,11.70
2023-04-15T18:42:21.534Z,11.60
2023-04-15T18:44:49.075Z,11.60
2023-04-15T18:47:15.811Z,11.50
2023-04-15T18:49:42.587Z,11.30
2023-04-15T18:52:09.791Z,11.20
2023-04-15T18:54:36.955Z,11.10
2023-04-15T18:57:03.833Z,11.00
2023-04-15T18:59:34.012Z,10.90
2023-04-15T19:02:00.934Z,10.80
2023-04-15T19:04:27.591Z,10.80
2023-04-15T19:06:54.324Z,10.80
2023-04-15T19:09:21.058Z,10.70
2023-04-15T19:11:47.748Z,10.70
2023-04-15T19:14:14.356Z,10.60
2023-04-15T19:16:41.081Z,10.60
2023-04-15T19:19:07.799Z,10.50
2023-04-15T19:21:34.569Z,10.50
2023-04-15T19:24:01.284Z,10.40
2023-04-15T19:26:27.872Z,10.30
2023-04-15T19:29:05.891Z,10.30
2023-04-15T19:31:32.702Z,10.10
2023-04-15T19:33:59.420Z,10.10
2023-04-15T19:36:26.027Z,10.00
2023-04-15T19:38:52.800Z,10.00
2023-04-15T19:41:19.613Z,9.90
2023-04-15T19:43:46.216Z,9.90
2023-04-15T19:46:12.972Z,9.90
2023-04-15T19:48:39.740Z,9.90
2023-04-15T19:51:06.454Z,9.90
2023-04-15T19:53:33.131Z,9.80
2023-04-15T19:55:59.779Z,9.80
2023-04-15T19:58:26.489Z,9.80
2023-04-15T20:00:53.320Z,9.80
2023-04-15T20:03:20.258Z,9.80
2023-04-15T20:05:47.037Z,9.80
2023-04-15T20:08:13.832Z,9.80
2023-04-15T20:10:41.985Z,9.70
2023-04-15T20:13:08.817Z,9.70
2023-04-15T20:15:35.491Z,9.60
2023-04-15T20:18:02.311Z,9.60
2023-04-15T20:20:29.088Z,9.60
2023-04-15T20:22:55.894Z,9.50
2023-04-15T20:25:22.591Z,9.40
2023-04-15T20:27:49.220Z,9.40
2023-04-15T20:30:15.995Z,9.40
2023-04-15T20:32:42.678Z,9.40
2023-04-15T20:35:09.597Z,9.30
2023-04-15T20:37:37.193Z,9.30
2023-04-15T20:40:04.031Z,9.30
2023-04-15T20:42:34.309Z,9.30
2023-04-15T20:45:01.070Z,9.20
2023-04-15T20:47:27.848Z,9.20
2023-04-15T20:49:54.524Z,9.20
2023-04-15T20:52:21.181Z,9.30
2023-04-15T20:54:47.922Z,9.30
2023-04-15T20:57:14.629Z,9.30
2023-04-15T20:59:41.328Z,9.30
2023-04-15T21:02:08.126Z,9.20
2023-04-15T21:04:34.770Z,9.20
2023-04-15T21:07:01.833Z,9.10
2023-04-15T21:09:28.518Z,9.10
2023-04-15T21:12:00.997Z,9.00
2023-04-15T21:14:28.065Z,9.00
2023-04-15T21:16:54.767Z,9.00
2023-04-15T21:19:21.431Z,9.00
2023-04-15T21:21:48.226Z,9.00
2023-04-15T21:24:17.567Z,9.00
2023-04-15T21:26:44.211Z,9.10
2023-04-15T21:29:11.940Z,9.10
2023-04-15T21:31:39.043Z,9.10
2023-04-15T21:34:05.757Z,9.10
2023-04-15T21:36:32.392Z,9.20
2023-04-15T21:38:59.219Z,9.20
2023-04-15T21:41:26.271Z,9.20
2023-04-15T21:43:53.294Z,9.20
2023-04-15T21:46:21.965Z,9.30
2023-04-15T21:48:54.252Z,9.30
2023-04-15T21:51:20.815Z,9.30
2023-04-15T21:53:47.443Z,9.40
2023-04-15T21:56:14.165Z,9.40
2023-04-15T21:58:40.828Z,9.40
2023-04-15T22:01:07.495Z,9.40
2023-04-15T22:03:34.842Z,9.50
2023-04-15T22:06:02.363Z,9.50
2023-04-15T22:08:29.121Z,9.40
2023-04-15T22:10:58.743Z,9.40
2023-04-15T22:13:25.466Z,9.40
2023-04-15T22:15:54.780Z,9.40
2023-04-15T22:18:21.370Z,9.40
2023-04-15T22:20:51.019Z,9.30
2023-04-15T22:23:17.805Z,9.30
2023-04-15T22:25:44.407Z,9.20
2023-04-15T22:28:11.064Z,9.30
2023-04-15T22:30:38.464Z,9.20
2023-04-15T22:33:06.055Z,9.20
2023-04-15T22:35:32.911Z,9.30
2023-04-15T22:37:59.543Z,9.20
2023-04-15T22:40:26.292Z,9.30
2023-04-15T22:42:52.923Z,9.30
2023-04-15T22:45:19.769Z,9.30
2023-04-15T22:47:46.418Z,9.30
2023-04-15T22:50:13.034Z,9.30
2023-04-15T22:52:39.669Z,9.30
2023-04-15T22:55:06.896Z,9.30
2023-04-15T22:57:33.534Z,9.20
2023-04-15T23:00:00.386Z,9.30
2023-04-15T23:02:27.270Z,9.30
2023-04-15T23:04:54.173Z,9.30
2023-04-15T23:07:20.864Z,9.30
2023-04-15T23:09:47.633Z,9.30
2023-04-15T23:12:14.303Z,9.30
2023-04-15T23:14:40.938Z,9.30
2023-04-15T23:17:07.583Z,9.30
2023-04-15T23:19:34.310Z,9.30
2023-04-15T23:22:00.955Z,9.30
2023-04-15T23:24:27.571Z,9.30
2023-04-15T23:26:54.932Z,9.40
2023-04-15T23:29:21.591Z,9.40
2023-04-15T23:31:48.285Z,9.40
2023-04-15T23:34:14.949Z,9.40
2023-04-15T23:36:41.586Z,9.40
2023-04-15T23:39:08.513Z,9.40
2023-04-15T23:41:35.371Z,9.40
2023-04-15T23:44:02.207Z,9.40
2023-04-15T23:46:28.960Z,9.30
2023-04-15T23:48:55.593Z,9.30
2023-04-15T23:51:22.167Z,9.30
2023-04-15T23:53:49.361Z,9.30
2023-04-15T23:56:15.994Z,9.40
2023-04-15T23:58:42.652Z,9.40
